sensor_id;sensor_type;location;lat;lon;timestamp;pressure;altitude;pressure_sealevel;temperature;humidity
37170;BME280;23062;13.952;100.608;2023-02-23T00:03:20;1013.34;;;29.42;47.96
37170;BME280;23062;13.952;100.608;2023-02-23T00:07:45;1013.41;;;29.41;48.12
37170;BME280;23062;13.952;100.608;2023-02-23T00:12:11;1013.53;;;29.42;48.54
37170;BME280;23062;13.952;100.608;2023-02-23T00:16:39;1013.58;;;29.43;48.81
37170;BME280;23062;13.952;100.608;2023-02-23T00:21:15;1013.58;;;29.44;49.11
37170;BME280;23062;13.952;100.608;2023-02-23T00:25:38;1013.59;;;29.46;49.64
37170;BME280;23062;13.952;100.608;2023-02-23T00:30:05;1013.67;;;29.47;50.08
37170;BME280;23062;13.952;100.608;2023-02-23T00:34:33;1013.72;;;29.50;50.16
37170;BME280;23062;13.952;100.608;2023-02-23T00:39:02;1013.79;;;29.53;50.34
37170;BME280;23062;13.952;100.608;2023-02-23T00:43:35;1013.82;;;29.56;50.48
37170;BME280;23062;13.952;100.608;2023-02-23T00:48:02;1013.90;;;29.60;50.44
37170;BME280;23062;13.952;100.608;2023-02-23T00:52:29;1013.96;;;29.63;50.58
37170;BME280;23062;13.952;100.608;2023-02-23T00:56:58;1014.10;;;29.66;50.62
37170;BME280;23062;13.952;100.608;2023-02-23T01:01:23;1014.23;;;29.70;50.30
37170;BME280;23062;13.952;100.608;2023-02-23T01:05:49;1014.28;;;29.72;49.41
37170;BME280;23062;13.952;100.608;2023-02-23T01:10:17;1014.28;;;29.76;49.74
37170;BME280;23062;13.952;100.608;2023-02-23T01:14:42;1014.25;;;29.79;49.67
37170;BME280;23062;13.952;100.608;2023-02-23T01:19:10;1014.29;;;29.82;49.61
37170;BME280;23062;13.952;100.608;2023-02-23T01:23:35;1014.32;;;29.85;48.82
37170;BME280;23062;13.952;100.608;2023-02-23T01:28:01;1014.34;;;29.87;48.26
37170;BME280;23062;13.952;100.608;2023-02-23T01:32:26;1014.35;;;29.88;48.18
37170;BME280;23062;13.952;100.608;2023-02-23T01:36:52;1014.42;;;29.88;48.04
37170;BME280;23062;13.952;100.608;2023-02-23T01:41:18;1014.39;;;29.77;46.12
37170;BME280;23062;13.952;100.608;2023-02-23T01:45:44;1014.43;;;29.83;46.65
37170;BME280;23062;13.952;100.608;2023-02-23T01:50:10;1014.45;;;29.75;43.65
37170;BME280;23062;13.952;100.608;2023-02-23T01:54:43;1014.45;;;29.82;44.06
37170;BME280;23062;13.952;100.608;2023-02-23T01:59:11;1014.43;;;29.87;45.48
37170;BME280;23062;13.952;100.608;2023-02-23T02:03:46;1014.43;;;29.83;43.94
37170;BME280;23062;13.952;100.608;2023-02-23T02:08:12;1014.48;;;29.91;44.95
37170;BME280;23062;13.952;100.608;2023-02-23T02:12:48;1014.52;;;29.96;45.04
37170;BME280;23062;13.952;100.608;2023-02-23T02:17:31;1014.48;;;30.01;45.65
37170;BME280;23062;13.952;100.608;2023-02-23T02:31:57;1014.55;;;30.13;46.23
37170;BME280;23062;13.952;100.608;2023-02-23T02:41:22;1014.54;;;30.16;45.12
37170;BME280;23062;13.952;100.608;2023-02-23T02:46:17;1014.54;;;30.12;43.45
37170;BME280;23062;13.952;100.608;2023-02-23T02:50:48;1014.54;;;30.21;44.67
37170;BME280;23062;13.952;100.608;2023-02-23T02:55:22;1014.56;;;30.20;44.79
37170;BME280;23062;13.952;100.608;2023-02-23T02:59:46;1014.57;;;30.23;44.54
37170;BME280;23062;13.952;100.608;2023-02-23T03:04:33;1014.59;;;30.25;43.49
37170;BME280;23062;13.952;100.608;2023-02-23T03:09:43;1014.54;;;30.27;43.52
37170;BME280;23062;13.952;100.608;2023-02-23T03:14:38;1014.50;;;30.33;43.35
37170;BME280;23062;13.952;100.608;2023-02-23T03:19:29;1014.47;;;30.36;42.75
37170;BME280;23062;13.952;100.608;2023-02-23T03:24:42;1014.45;;;30.38;42.93
37170;BME280;23062;13.952;100.608;2023-02-23T03:39:20;1014.20;;;30.47;43.72
37170;BME280;23062;13.952;100.608;2023-02-23T03:44:05;1014.21;;;30.49;43.89
37170;BME280;23062;13.952;100.608;2023-02-23T03:48:48;1014.11;;;30.52;43.70
37170;BME280;23062;13.952;100.608;2023-02-23T03:53:49;1014.04;;;30.55;43.48
37170;BME280;23062;13.952;100.608;2023-02-23T03:58:37;1013.98;;;30.56;43.29
37170;BME280;23062;13.952;100.608;2023-02-23T04:03:15;1013.91;;;30.59;42.70
37170;BME280;23062;13.952;100.608;2023-02-23T04:08:02;1013.84;;;30.61;42.80
37170;BME280;23062;13.952;100.608;2023-02-23T04:12:56;1013.78;;;30.65;42.56
37170;BME280;23062;13.952;100.608;2023-02-23T04:17:39;1013.65;;;30.61;42.25
37170;BME280;23062;13.952;100.608;2023-02-23T04:22:09;1013.56;;;30.54;42.67
37170;BME280;23062;13.952;100.608;2023-02-23T04:26:34;1013.49;;;30.58;42.26
37170;BME280;23062;13.952;100.608;2023-02-23T04:30:59;1013.38;;;30.66;41.60
37170;BME280;23062;13.952;100.608;2023-02-23T04:35:26;1013.30;;;30.70;40.92
37170;BME280;23062;13.952;100.608;2023-02-23T04:39:53;1013.28;;;30.73;40.95
37170;BME280;23062;13.952;100.608;2023-02-23T04:44:20;1013.26;;;30.77;41.21
37170;BME280;23062;13.952;100.608;2023-02-23T04:48:47;1013.16;;;30.83;40.84
37170;BME280;23062;13.952;100.608;2023-02-23T04:53:12;1013.08;;;30.90;40.56
37170;BME280;23062;13.952;100.608;2023-02-23T04:57:37;1013.00;;;30.85;41.33
37170;BME280;23062;13.952;100.608;2023-02-23T05:02:05;1012.92;;;30.88;41.09
37170;BME280;23062;13.952;100.608;2023-02-23T05:06:31;1012.79;;;31.02;40.16
37170;BME280;23062;13.952;100.608;2023-02-23T05:10:57;1012.74;;;31.01;40.70
37170;BME280;23062;13.952;100.608;2023-02-23T05:15:22;1012.61;;;31.06;40.69
37170;BME280;23062;13.952;100.608;2023-02-23T05:19:48;1012.57;;;31.11;40.91
37170;BME280;23062;13.952;100.608;2023-02-23T05:24:13;1012.47;;;31.14;40.89
37170;BME280;23062;13.952;100.608;2023-02-23T05:28:40;1012.43;;;31.25;40.52
37170;BME280;23062;13.952;100.608;2023-02-23T05:33:05;1012.36;;;31.32;40.23
37170;BME280;23062;13.952;100.608;2023-02-23T05:37:31;1012.28;;;31.31;40.02
37170;BME280;23062;13.952;100.608;2023-02-23T05:41:58;1012.25;;;31.39;39.18
37170;BME280;23062;13.952;100.608;2023-02-23T05:46:25;1012.10;;;31.45;38.58
37170;BME280;23062;13.952;100.608;2023-02-23T05:50:52;1012.06;;;31.36;39.11
37170;BME280;23062;13.952;100.608;2023-02-23T05:55:17;1011.96;;;31.49;38.51
37170;BME280;23062;13.952;100.608;2023-02-23T05:59:43;1011.85;;;31.47;38.75
37170;BME280;23062;13.952;100.608;2023-02-23T06:04:09;1011.72;;;31.40;39.58
37170;BME280;23062;13.952;100.608;2023-02-23T06:08:35;1011.63;;;31.58;38.55
37170;BME280;23062;13.952;100.608;2023-02-23T06:13:04;1011.54;;;31.49;38.97
37170;BME280;23062;13.952;100.608;2023-02-23T06:17:30;1011.53;;;31.47;39.38
37170;BME280;23062;13.952;100.608;2023-02-23T06:22:00;1011.35;;;31.54;38.38
37170;BME280;23062;13.952;100.608;2023-02-23T06:26:25;1011.25;;;31.56;37.97
37170;BME280;23062;13.952;100.608;2023-02-23T06:30:53;1011.26;;;31.68;37.33
37170;BME280;23062;13.952;100.608;2023-02-23T06:35:19;1011.15;;;31.61;37.58
37170;BME280;23062;13.952;100.608;2023-02-23T06:39:44;1011.07;;;31.69;37.45
37170;BME280;23062;13.952;100.608;2023-02-23T06:44:10;1011.05;;;31.79;36.82
37170;BME280;23062;13.952;100.608;2023-02-23T06:48:35;1010.92;;;31.65;37.33
37170;BME280;23062;13.952;100.608;2023-02-23T06:53:01;1010.91;;;31.60;37.60
37170;BME280;23062;13.952;100.608;2023-02-23T06:57:27;1010.75;;;31.66;36.57
37170;BME280;23062;13.952;100.608;2023-02-23T07:01:57;1010.62;;;31.89;35.73
37170;BME280;23062;13.952;100.608;2023-02-23T07:06:23;1010.63;;;31.86;36.05
37170;BME280;23062;13.952;100.608;2023-02-23T07:10:48;1010.52;;;31.83;35.71
37170;BME280;23062;13.952;100.608;2023-02-23T07:15:21;1010.50;;;31.71;36.36
37170;BME280;23062;13.952;100.608;2023-02-23T07:19:47;1010.39;;;31.64;36.46
37170;BME280;23062;13.952;100.608;2023-02-23T07:24:12;1010.30;;;31.81;35.20
37170;BME280;23062;13.952;100.608;2023-02-23T07:28:38;1010.25;;;31.72;35.77
37170;BME280;23062;13.952;100.608;2023-02-23T07:33:04;1010.17;;;31.78;35.48
37170;BME280;23062;13.952;100.608;2023-02-23T07:37:30;1010.11;;;31.70;36.11
37170;BME280;23062;13.952;100.608;2023-02-23T07:41:56;1010.01;;;31.78;35.58
37170;BME280;23062;13.952;100.608;2023-02-23T07:46:21;1009.99;;;31.79;35.67
37170;BME280;23062;13.952;100.608;2023-02-23T07:50:47;1009.93;;;31.77;35.30
37170;BME280;23062;13.952;100.608;2023-02-23T07:55:13;1009.88;;;31.81;35.02
37170;BME280;23062;13.952;100.608;2023-02-23T07:59:39;1009.81;;;31.71;35.18
37170;BME280;23062;13.952;100.608;2023-02-23T08:04:05;1009.73;;;31.73;35.10
37170;BME280;23062;13.952;100.608;2023-02-23T08:08:30;1009.69;;;31.82;34.97
37170;BME280;23062;13.952;100.608;2023-02-23T08:12:57;1009.66;;;31.90;34.71
37170;BME280;23062;13.952;100.608;2023-02-23T08:17:23;1009.66;;;31.85;34.97
37170;BME280;23062;13.952;100.608;2023-02-23T08:21:52;1009.58;;;31.81;34.99
37170;BME280;23062;13.952;100.608;2023-02-23T08:26:17;1009.62;;;31.79;35.05
37170;BME280;23062;13.952;100.608;2023-02-23T08:30:43;1009.56;;;31.77;35.13
37170;BME280;23062;13.952;100.608;2023-02-23T08:35:11;1009.54;;;31.83;34.69
37170;BME280;23062;13.952;100.608;2023-02-23T08:39:38;1009.43;;;31.88;34.49
37170;BME280;23062;13.952;100.608;2023-02-23T08:44:03;1009.39;;;31.84;34.80
37170;BME280;23062;13.952;100.608;2023-02-23T08:48:28;1009.36;;;31.85;34.69
37170;BME280;23062;13.952;100.608;2023-02-23T08:52:54;1009.41;;;31.82;34.66
37170;BME280;23062;13.952;100.608;2023-02-23T08:57:19;1009.40;;;31.83;34.28
37170;BME280;23062;13.952;100.608;2023-02-23T09:01:48;1009.34;;;31.74;34.53
37170;BME280;23062;13.952;100.608;2023-02-23T09:06:22;1009.34;;;31.67;35.02
37170;BME280;23062;13.952;100.608;2023-02-23T09:10:52;1009.35;;;31.73;34.91
37170;BME280;23062;13.952;100.608;2023-02-23T09:15:17;1009.37;;;31.67;35.47
37170;BME280;23062;13.952;100.608;2023-02-23T09:19:43;1009.39;;;31.63;35.71
37170;BME280;23062;13.952;100.608;2023-02-23T09:24:13;1009.37;;;31.63;35.34
37170;BME280;23062;13.952;100.608;2023-02-23T09:28:39;1009.37;;;31.61;35.65
37170;BME280;23062;13.952;100.608;2023-02-23T09:33:05;1009.35;;;31.59;35.38
37170;BME280;23062;13.952;100.608;2023-02-23T09:37:30;1009.38;;;31.62;35.28
37170;BME280;23062;13.952;100.608;2023-02-23T09:51:20;1009.41;;;31.59;35.41
37170;BME280;23062;13.952;100.608;2023-02-23T09:55:47;1009.49;;;31.59;35.59
37170;BME280;23062;13.952;100.608;2023-02-23T10:00:24;1009.46;;;31.60;35.54
37170;BME280;23062;13.952;100.608;2023-02-23T10:05:03;1009.51;;;31.58;35.69
37170;BME280;23062;13.952;100.608;2023-02-23T10:09:48;1009.59;;;31.59;35.54
37170;BME280;23062;13.952;100.608;2023-02-23T10:23:35;1009.74;;;31.61;35.09
37170;BME280;23062;13.952;100.608;2023-02-23T10:27:58;1009.73;;;31.58;35.37
37170;BME280;23062;13.952;100.608;2023-02-23T10:37:19;1009.80;;;31.54;36.41
37170;BME280;23062;13.952;100.608;2023-02-23T10:41:45;1009.80;;;31.51;37.75
37170;BME280;23062;13.952;100.608;2023-02-23T10:46:20;1009.74;;;31.47;38.69
37170;BME280;23062;13.952;100.608;2023-02-23T10:50:48;1009.74;;;31.45;39.28
37170;BME280;23062;13.952;100.608;2023-02-23T10:55:22;1009.72;;;31.46;39.78
37170;BME280;23062;13.952;100.608;2023-02-23T11:04:53;1009.74;;;31.44;40.94
37170;BME280;23062;13.952;100.608;2023-02-23T11:09:28;1009.72;;;31.43;41.29
37170;BME280;23062;13.952;100.608;2023-02-23T11:13:57;1009.73;;;31.42;41.58
37170;BME280;23062;13.952;100.608;2023-02-23T11:18:25;1009.81;;;31.41;41.70
37170;BME280;23062;13.952;100.608;2023-02-23T11:22:51;1009.84;;;31.38;41.62
37170;BME280;23062;13.952;100.608;2023-02-23T11:27:27;1009.79;;;31.38;41.87
37170;BME280;23062;13.952;100.608;2023-02-23T11:31:54;1009.83;;;31.35;42.34
37170;BME280;23062;13.952;100.608;2023-02-23T11:36:31;1009.89;;;31.35;42.59
37170;BME280;23062;13.952;100.608;2023-02-23T11:45:46;1009.96;;;31.37;42.83
37170;BME280;23062;13.952;100.608;2023-02-23T11:50:27;1010.03;;;31.34;43.04
37170;BME280;23062;13.952;100.608;2023-02-23T11:55:04;1010.09;;;31.34;43.37
37170;BME280;23062;13.952;100.608;2023-02-23T11:59:39;1010.16;;;31.32;43.65
37170;BME280;23062;13.952;100.608;2023-02-23T12:04:06;1010.18;;;31.33;43.55
37170;BME280;23062;13.952;100.608;2023-02-23T12:08:46;1010.18;;;31.33;44.00
37170;BME280;23062;13.952;100.608;2023-02-23T12:17:57;1010.28;;;31.37;45.38
37170;BME280;23062;13.952;100.608;2023-02-23T12:22:32;1010.29;;;31.36;45.96
37170;BME280;23062;13.952;100.608;2023-02-23T12:27:09;1010.33;;;31.35;46.05
37170;BME280;23062;13.952;100.608;2023-02-23T12:31:46;1010.34;;;31.43;45.98
37170;BME280;23062;13.952;100.608;2023-02-23T12:36:34;1010.37;;;31.56;45.28
37170;BME280;23062;13.952;100.608;2023-02-23T12:41:22;1010.41;;;31.61;44.83
37170;BME280;23062;13.952;100.608;2023-02-23T12:45:51;1010.43;;;31.62;44.59
37170;BME280;23062;13.952;100.608;2023-02-23T12:50:30;1010.45;;;31.60;44.46
37170;BME280;23062;13.952;100.608;2023-02-23T12:54:57;1010.52;;;31.60;44.52
37170;BME280;23062;13.952;100.608;2023-02-23T13:04:41;1010.66;;;31.57;44.47
37170;BME280;23062;13.952;100.608;2023-02-23T13:13:50;1010.76;;;31.55;44.58
37170;BME280;23062;13.952;100.608;2023-02-23T13:18:36;1010.78;;;31.54;44.60
37170;BME280;23062;13.952;100.608;2023-02-23T13:23:09;1010.79;;;31.52;44.68
37170;BME280;23062;13.952;100.608;2023-02-23T13:27:45;1010.87;;;31.51;44.81
37170;BME280;23062;13.952;100.608;2023-02-23T13:36:47;1010.97;;;31.48;44.92
37170;BME280;23062;13.952;100.608;2023-02-23T14:00:00;1011.16;;;31.43;45.10
37170;BME280;23062;13.952;100.608;2023-02-23T14:04:35;1011.14;;;31.43;45.14
37170;BME280;23062;13.952;100.608;2023-02-23T14:09:17;1011.17;;;31.42;45.12
37170;BME280;23062;13.952;100.608;2023-02-23T14:13:56;1011.28;;;31.40;45.19
37170;BME280;23062;13.952;100.608;2023-02-23T14:23:14;1011.33;;;31.37;45.27
37170;BME280;23062;13.952;100.608;2023-02-23T14:27:44;1011.33;;;31.37;45.37
37170;BME280;23062;13.952;100.608;2023-02-23T14:36:43;1011.45;;;31.34;45.37
37170;BME280;23062;13.952;100.608;2023-02-23T14:41:10;1011.46;;;31.33;45.38
37170;BME280;23062;13.952;100.608;2023-02-23T14:45:44;1011.42;;;31.33;45.45
37170;BME280;23062;13.952;100.608;2023-02-23T14:50:14;1011.40;;;31.30;45.50
37170;BME280;23062;13.952;100.608;2023-02-23T14:54:40;1011.40;;;31.31;45.53
37170;BME280;23062;13.952;100.608;2023-02-23T14:59:07;1011.49;;;31.30;45.49
37170;BME280;23062;13.952;100.608;2023-02-23T15:03:33;1011.50;;;31.28;45.52
37170;BME280;23062;13.952;100.608;2023-02-23T15:08:00;1011.49;;;31.28;45.53
37170;BME280;23062;13.952;100.608;2023-02-23T15:12:33;1011.50;;;31.27;45.62
37170;BME280;23062;13.952;100.608;2023-02-23T15:16:58;1011.57;;;31.28;45.64
37170;BME280;23062;13.952;100.608;2023-02-23T15:21:31;1011.57;;;31.26;45.69
37170;BME280;23062;13.952;100.608;2023-02-23T15:25:56;1011.52;;;31.26;45.76
37170;BME280;23062;13.952;100.608;2023-02-23T15:30:30;1011.46;;;31.25;45.81
37170;BME280;23062;13.952;100.608;2023-02-23T15:34:57;1011.55;;;31.24;45.82
37170;BME280;23062;13.952;100.608;2023-02-23T15:39:46;1011.52;;;31.23;45.95
37170;BME280;23062;13.952;100.608;2023-02-23T15:44:23;1011.58;;;31.22;45.95
37170;BME280;23062;13.952;100.608;2023-02-23T15:48:45;1011.61;;;31.22;45.98
37170;BME280;23062;13.952;100.608;2023-02-23T15:53:23;1011.62;;;31.22;45.95
37170;BME280;23062;13.952;100.608;2023-02-23T15:57:57;1011.65;;;31.22;45.94
37170;BME280;23062;13.952;100.608;2023-02-23T16:02:24;1011.57;;;31.22;45.96
37170;BME280;23062;13.952;100.608;2023-02-23T16:11:36;1011.56;;;31.18;46.00
37170;BME280;23062;13.952;100.608;2023-02-23T16:16:06;1011.52;;;31.19;46.05
37170;BME280;23062;13.952;100.608;2023-02-23T16:20:55;1011.52;;;31.19;46.01
37170;BME280;23062;13.952;100.608;2023-02-23T16:25:21;1011.49;;;31.19;45.98
37170;BME280;23062;13.952;100.608;2023-02-23T16:29:56;1011.47;;;31.18;45.86
37170;BME280;23062;13.952;100.608;2023-02-23T16:34:34;1011.41;;;31.18;45.83
37170;BME280;23062;13.952;100.608;2023-02-23T16:39:08;1011.36;;;31.18;45.83
37170;BME280;23062;13.952;100.608;2023-02-23T16:43:33;1011.36;;;31.17;45.83
37170;BME280;23062;13.952;100.608;2023-02-23T16:48:00;1011.30;;;31.16;45.88
37170;BME280;23062;13.952;100.608;2023-02-23T16:52:27;1011.26;;;31.15;45.73
37170;BME280;23062;13.952;100.608;2023-02-23T16:56:54;1011.24;;;31.12;45.88
37170;BME280;23062;13.952;100.608;2023-02-23T17:01:20;1011.18;;;31.12;45.76
37170;BME280;23062;13.952;100.608;2023-02-23T17:05:49;1011.16;;;31.12;45.89
37170;BME280;23062;13.952;100.608;2023-02-23T17:10:20;1011.10;;;31.09;45.76
37170;BME280;23062;13.952;100.608;2023-02-23T17:14:48;1011.02;;;31.08;45.66
37170;BME280;23062;13.952;100.608;2023-02-23T17:19:20;1011.05;;;31.08;45.73
37170;BME280;23062;13.952;100.608;2023-02-23T17:23:47;1011.00;;;31.07;45.85
37170;BME280;23062;13.952;100.608;2023-02-23T17:28:18;1011.01;;;31.07;45.75
37170;BME280;23062;13.952;100.608;2023-02-23T17:32:44;1010.99;;;31.07;45.70
37170;BME280;23062;13.952;100.608;2023-02-23T17:37:12;1011.00;;;31.05;45.69
37170;BME280;23062;13.952;100.608;2023-02-23T17:41:38;1011.04;;;31.07;45.63
37170;BME280;23062;13.952;100.608;2023-02-23T17:46:06;1011.00;;;31.05;45.58
37170;BME280;23062;13.952;100.608;2023-02-23T17:50:32;1010.98;;;31.02;45.71
37170;BME280;23062;13.952;100.608;2023-02-23T17:54:57;1010.95;;;31.02;45.73
37170;BME280;23062;13.952;100.608;2023-02-23T17:59:28;1010.94;;;31.01;45.50
37170;BME280;23062;13.952;100.608;2023-02-23T18:03:54;1010.95;;;31.01;45.65
37170;BME280;23062;13.952;100.608;2023-02-23T18:08:21;1010.90;;;31.00;45.64
37170;BME280;23062;13.952;100.608;2023-02-23T18:12:46;1010.93;;;31.00;45.55
37170;BME280;23062;13.952;100.608;2023-02-23T18:17:13;1010.99;;;31.00;45.55
37170;BME280;23062;13.952;100.608;2023-02-23T18:21:39;1011.02;;;30.99;45.43
37170;BME280;23062;13.952;100.608;2023-02-23T18:26:22;1010.97;;;30.97;45.53
37170;BME280;23062;13.952;100.608;2023-02-23T18:30:49;1010.97;;;30.96;45.52
37170;BME280;23062;13.952;100.608;2023-02-23T18:35:15;1010.93;;;30.95;45.49
37170;BME280;23062;13.952;100.608;2023-02-23T18:39:40;1010.89;;;30.93;45.57
37170;BME280;23062;13.952;100.608;2023-02-23T18:44:14;1010.86;;;30.94;45.61
37170;BME280;23062;13.952;100.608;2023-02-23T18:48:40;1010.82;;;30.92;45.79
37170;BME280;23062;13.952;100.608;2023-02-23T18:53:06;1010.77;;;30.92;45.75
37170;BME280;23062;13.952;100.608;2023-02-23T18:57:32;1010.74;;;30.90;46.04
37170;BME280;23062;13.952;100.608;2023-02-23T19:02:01;1010.66;;;30.88;45.98
37170;BME280;23062;13.952;100.608;2023-02-23T19:06:27;1010.67;;;30.88;46.12
37170;BME280;23062;13.952;100.608;2023-02-23T19:10:57;1010.67;;;30.87;46.22
37170;BME280;23062;13.952;100.608;2023-02-23T19:15:23;1010.61;;;30.86;46.32
37170;BME280;23062;13.952;100.608;2023-02-23T19:19:48;1010.59;;;30.85;46.30
37170;BME280;23062;13.952;100.608;2023-02-23T19:24:14;1010.53;;;30.84;46.51
37170;BME280;23062;13.952;100.608;2023-02-23T19:28:40;1010.55;;;30.83;46.71
37170;BME280;23062;13.952;100.608;2023-02-23T19:33:13;1010.54;;;30.80;46.80
37170;BME280;23062;13.952;100.608;2023-02-23T19:37:43;1010.55;;;30.79;46.97
37170;BME280;23062;13.952;100.608;2023-02-23T19:42:05;1010.50;;;30.78;47.13
37170;BME280;23062;13.952;100.608;2023-02-23T19:46:33;1010.44;;;30.76;47.16
37170;BME280;23062;13.952;100.608;2023-02-23T19:51:00;1010.45;;;30.76;47.31
37170;BME280;23062;13.952;100.608;2023-02-23T19:55:27;1010.49;;;30.74;47.29
37170;BME280;23062;13.952;100.608;2023-02-23T19:59:52;1010.49;;;30.73;47.32
37170;BME280;23062;13.952;100.608;2023-02-23T20:04:18;1010.55;;;30.72;47.32
37170;BME280;23062;13.952;100.608;2023-02-23T20:08:44;1010.57;;;30.69;47.39
37170;BME280;23062;13.952;100.608;2023-02-23T20:13:11;1010.60;;;30.70;47.57
37170;BME280;23062;13.952;100.608;2023-02-23T20:17:36;1010.61;;;30.67;47.79
37170;BME280;23062;13.952;100.608;2023-02-23T20:22:03;1010.71;;;30.66;48.00
37170;BME280;23062;13.952;100.608;2023-02-23T20:26:30;1010.63;;;30.64;48.25
37170;BME280;23062;13.952;100.608;2023-02-23T20:31:09;1010.61;;;30.63;48.31
37170;BME280;23062;13.952;100.608;2023-02-23T20:35:31;1010.61;;;30.59;48.95
37170;BME280;23062;13.952;100.608;2023-02-23T20:39:57;1010.54;;;30.58;49.30
37170;BME280;23062;13.952;100.608;2023-02-23T20:44:23;1010.55;;;30.58;49.27
37170;BME280;23062;13.952;100.608;2023-02-23T20:48:51;1010.53;;;30.59;49.26
37170;BME280;23062;13.952;100.608;2023-02-23T20:53:16;1010.48;;;30.55;49.47
37170;BME280;23062;13.952;100.608;2023-02-23T20:57:42;1010.52;;;30.53;49.63
37170;BME280;23062;13.952;100.608;2023-02-23T21:02:15;1010.50;;;30.54;49.62
37170;BME280;23062;13.952;100.608;2023-02-23T21:06:41;1010.55;;;30.56;49.78
37170;BME280;23062;13.952;100.608;2023-02-23T21:11:06;1010.55;;;30.56;49.69
37170;BME280;23062;13.952;100.608;2023-02-23T21:15:32;1010.55;;;30.47;50.49
37170;BME280;23062;13.952;100.608;2023-02-23T21:19:58;1010.55;;;30.27;51.18
37170;BME280;23062;13.952;100.608;2023-02-23T21:24:25;1010.49;;;29.90;52.52
37170;BME280;23062;13.952;100.608;2023-02-23T21:28:53;1010.49;;;29.69;53.18
37170;BME280;23062;13.952;100.608;2023-02-23T21:33:18;1010.52;;;29.44;53.81
37170;BME280;23062;13.952;100.608;2023-02-23T21:37:44;1010.58;;;29.24;54.11
37170;BME280;23062;13.952;100.608;2023-02-23T21:42:10;1010.62;;;29.32;53.79
37170;BME280;23062;13.952;100.608;2023-02-23T21:46:39;1010.66;;;29.50;53.37
37170;BME280;23062;13.952;100.608;2023-02-23T21:51:09;1010.58;;;29.12;53.70
37170;BME280;23062;13.952;100.608;2023-02-23T21:55:37;1010.66;;;29.15;53.68
37170;BME280;23062;13.952;100.608;2023-02-23T22:00:06;1010.75;;;29.24;56.23
37170;BME280;23062;13.952;100.608;2023-02-23T22:04:32;1010.64;;;28.92;57.56
37170;BME280;23062;13.952;100.608;2023-02-23T22:08:57;1010.68;;;28.86;56.68
37170;BME280;23062;13.952;100.608;2023-02-23T22:13:24;1010.73;;;28.90;57.88
37170;BME280;23062;13.952;100.608;2023-02-23T22:17:50;1010.66;;;29.07;58.24
37170;BME280;23062;13.952;100.608;2023-02-23T22:22:17;1010.68;;;29.17;57.93
37170;BME280;23062;13.952;100.608;2023-02-23T22:26:47;1010.88;;;29.01;58.30
37170;BME280;23062;13.952;100.608;2023-02-23T22:31:25;1011.00;;;29.10;57.91
37170;BME280;23062;13.952;100.608;2023-02-23T22:35:54;1011.05;;;28.81;58.81
37170;BME280;23062;13.952;100.608;2023-02-23T22:40:21;1011.11;;;28.85;58.22
37170;BME280;23062;13.952;100.608;2023-02-23T22:44:46;1011.19;;;29.00;57.13
37170;BME280;23062;13.952;100.608;2023-02-23T22:49:12;1011.27;;;29.28;56.92
37170;BME280;23062;13.952;100.608;2023-02-23T22:53:38;1011.34;;;29.43;56.77
37170;BME280;23062;13.952;100.608;2023-02-23T22:58:06;1011.31;;;29.41;56.82
37170;BME280;23062;13.952;100.608;2023-02-23T23:02:32;1011.36;;;29.42;56.17
37170;BME280;23062;13.952;100.608;2023-02-23T23:06:59;1011.33;;;29.42;55.10
37170;BME280;23062;13.952;100.608;2023-02-23T23:11:27;1011.52;;;29.46;56.02
37170;BME280;23062;13.952;100.608;2023-02-23T23:15:53;1011.58;;;29.47;56.03
37170;BME280;23062;13.952;100.608;2023-02-23T23:20:25;1011.59;;;29.44;56.35
37170;BME280;23062;13.952;100.608;2023-02-23T23:24:52;1011.65;;;29.42;56.24
37170;BME280;23062;13.952;100.608;2023-02-23T23:29:27;1011.74;;;29.40;56.33
37170;BME280;23062;13.952;100.608;2023-02-23T23:34:03;1011.77;;;29.38;56.48
37170;BME280;23062;13.952;100.608;2023-02-23T23:38:29;1011.82;;;29.35;56.47
37170;BME280;23062;13.952;100.608;2023-02-23T23:42:57;1011.90;;;29.36;56.51
37170;BME280;23062;13.952;100.608;2023-02-23T23:47:24;1011.98;;;29.35;56.51
37170;BME280;23062;13.952;100.608;2023-02-23T23:51:53;1012.07;;;29.34;56.42
37170;BME280;23062;13.952;100.608;2023-02-23T23:56:20;1012.04;;;29.32;56.08
